sensor_id;sensor_type;location;lat;lon;timestamp;P1;durP1;ratioP1;P2;durP2;ratioP2
14169;SDS011;63889;50.596;8.690;2023-10-31T00:01:19;0.95;;;0.73;;
14169;SDS011;63889;50.596;8.690;2023-10-31T00:03:45;1.33;;;0.60;;
14169;SDS011;63889;50.596;8.690;2023-10-31T00:06:11;2.80;;;0.60;;
14169;SDS011;63889;50.596;8.690;2023-10-31T00:08:36;0.60;;;0.60;;
14169;SDS011;63889;50.596;8.690;2023-10-31T00:11:02;1.15;;;0.60;;
14169;SDS011;63889;50.596;8.690;2023-10-31T00:13:28;1.80;;;0.63;;
14169;SDS011;63889;50.596;8.690;2023-10-31T00:15:53;2.25;;;0.65;;
14169;SDS011;63889;50.596;8.690;2023-10-31T00:18:19;0.60;;;0.57;;
14169;SDS011;63889;50.596;8.690;2023-10-31T00:20:45;1.25;;;0.50;;
14169;SDS011;63889;50.596;8.690;2023-10-31T00:23:11;0.60;;;0.55;;
14169;SDS011;63889;50.596;8.690;2023-10-31T00:25:37;4.70;;;0.63;;
14169;SDS011;63889;50.596;8.690;2023-10-31T00:28:03;1.98;;;0.80;;
14169;SDS011;63889;50.596;8.690;2023-10-31T00:30:28;0.70;;;0.60;;
14169;SDS011;63889;50.596;8.690;2023-10-31T00:32:56;1.50;;;0.80;;
14169;SDS011;63889;50.596;8.690;2023-10-31T00:35:38;1.85;;;0.75;;
14169;SDS011;63889;50.596;8.690;2023-10-31T00:40:29;2.33;;;0.70;;
14169;SDS011;63889;50.596;8.690;2023-10-31T00:42:54;0.52;;;0.40;;
14169;SDS011;63889;50.596;8.690;2023-10-31T00:45:23;3.03;;;0.70;;
14169;SDS011;63889;50.596;8.690;2023-10-31T00:47:48;1.13;;;0.40;;
14169;SDS011;63889;50.596;8.690;2023-10-31T00:50:14;1.27;;;0.50;;
14169;SDS011;63889;50.596;8.690;2023-10-31T00:52:39;1.73;;;0.50;;
14169;SDS011;63889;50.596;8.690;2023-10-31T00:55:05;1.02;;;0.57;;
14169;SDS011;63889;50.596;8.690;2023-10-31T00:57:31;2.40;;;0.38;;
14169;SDS011;63889;50.596;8.690;2023-10-31T00:59:56;1.80;;;0.50;;
14169;SDS011;63889;50.596;8.690;2023-10-31T01:02:22;2.97;;;0.90;;
14169;SDS011;63889;50.596;8.690;2023-10-31T01:04:47;0.40;;;0.40;;
14169;SDS011;63889;50.596;8.690;2023-10-31T01:07:13;0.60;;;0.28;;
14169;SDS011;63889;50.596;8.690;2023-10-31T01:09:41;0.70;;;0.30;;
14169;SDS011;63889;50.596;8.690;2023-10-31T01:12:07;3.22;;;0.52;;
14169;SDS011;63889;50.596;8.690;2023-10-31T01:14:35;0.50;;;0.40;;
14169;SDS011;63889;50.596;8.690;2023-10-31T01:17:00;3.17;;;0.35;;
14169;SDS011;63889;50.596;8.690;2023-10-31T01:19:26;0.38;;;0.38;;
14169;SDS011;63889;50.596;8.690;2023-10-31T01:21:51;1.40;;;0.40;;
14169;SDS011;63889;50.596;8.690;2023-10-31T01:24:17;0.10;;;0.10;;
14169;SDS011;63889;50.596;8.690;2023-10-31T01:26:43;0.30;;;0.22;;
14169;SDS011;63889;50.596;8.690;2023-10-31T01:29:08;1.48;;;0.38;;
14169;SDS011;63889;50.596;8.690;2023-10-31T01:31:34;0.30;;;0.30;;
14169;SDS011;63889;50.596;8.690;2023-10-31T01:34:01;0.38;;;0.25;;
14169;SDS011;63889;50.596;8.690;2023-10-31T01:36:27;0.57;;;0.30;;
14169;SDS011;63889;50.596;8.690;2023-10-31T01:38:53;0.15;;;0.15;;
14169;SDS011;63889;50.596;8.690;2023-10-31T01:41:18;0.20;;;0.20;;
14169;SDS011;63889;50.596;8.690;2023-10-31T01:43:44;0.47;;;0.30;;
14169;SDS011;63889;50.596;8.690;2023-10-31T01:46:09;0.20;;;0.20;;
14169;SDS011;63889;50.596;8.690;2023-10-31T01:48:36;3.03;;;0.20;;
14169;SDS011;63889;50.596;8.690;2023-10-31T01:51:02;0.40;;;0.20;;
14169;SDS011;63889;50.596;8.690;2023-10-31T01:53:32;0.53;;;0.40;;
14169;SDS011;63889;50.596;8.690;2023-10-31T01:56:00;1.75;;;0.10;;
14169;SDS011;63889;50.596;8.690;2023-10-31T01:58:29;1.10;;;0.22;;
14169;SDS011;63889;50.596;8.690;2023-10-31T02:00:59;0.43;;;0.32;;
14169;SDS011;63889;50.596;8.690;2023-10-31T02:03:25;3.50;;;0.30;;
14169;SDS011;63889;50.596;8.690;2023-10-31T02:05:52;2.33;;;0.30;;
14169;SDS011;63889;50.596;8.690;2023-10-31T02:08:18;0.30;;;0.20;;
14169;SDS011;63889;50.596;8.690;2023-10-31T02:10:44;1.85;;;0.20;;
14169;SDS011;63889;50.596;8.690;2023-10-31T02:13:10;0.20;;;0.20;;
14169;SDS011;63889;50.596;8.690;2023-10-31T02:15:39;1.55;;;0.50;;
14169;SDS011;63889;50.596;8.690;2023-10-31T02:18:05;0.25;;;0.22;;
14169;SDS011;63889;50.596;8.690;2023-10-31T02:20:31;2.13;;;0.25;;
14169;SDS011;63889;50.596;8.690;2023-10-31T02:22:57;0.10;;;0.10;;
14169;SDS011;63889;50.596;8.690;2023-10-31T02:25:23;0.20;;;0.15;;
14169;SDS011;63889;50.596;8.690;2023-10-31T02:27:48;0.30;;;0.30;;
14169;SDS011;63889;50.596;8.690;2023-10-31T02:30:14;0.52;;;0.20;;
14169;SDS011;63889;50.596;8.690;2023-10-31T02:32:40;0.10;;;0.10;;
14169;SDS011;63889;50.596;8.690;2023-10-31T02:35:06;1.70;;;0.30;;
14169;SDS011;63889;50.596;8.690;2023-10-31T02:37:32;1.35;;;0.20;;
14169;SDS011;63889;50.596;8.690;2023-10-31T02:39:58;0.20;;;0.20;;
14169;SDS011;63889;50.596;8.690;2023-10-31T02:42:24;0.10;;;0.10;;
14169;SDS011;63889;50.596;8.690;2023-10-31T02:44:50;2.17;;;0.30;;
14169;SDS011;63889;50.596;8.690;2023-10-31T02:47:15;0.28;;;0.20;;
14169;SDS011;63889;50.596;8.690;2023-10-31T02:49:41;0.22;;;0.20;;
14169;SDS011;63889;50.596;8.690;2023-10-31T02:52:07;0.55;;;0.20;;
14169;SDS011;63889;50.596;8.690;2023-10-31T02:54:32;3.85;;;0.30;;
14169;SDS011;63889;50.596;8.690;2023-10-31T02:56:58;0.25;;;0.20;;
14169;SDS011;63889;50.596;8.690;2023-10-31T02:59:23;0.38;;;0.20;;
14169;SDS011;63889;50.596;8.690;2023-10-31T03:01:49;1.80;;;0.20;;
14169;SDS011;63889;50.596;8.690;2023-10-31T03:04:15;0.28;;;0.20;;
14169;SDS011;63889;50.596;8.690;2023-10-31T03:06:40;2.00;;;0.25;;
14169;SDS011;63889;50.596;8.690;2023-10-31T03:09:07;3.33;;;0.20;;
14169;SDS011;63889;50.596;8.690;2023-10-31T03:11:32;0.38;;;0.20;;
14169;SDS011;63889;50.596;8.690;2023-10-31T03:13:58;0.20;;;0.00;;
14169;SDS011;63889;50.596;8.690;2023-10-31T03:16:24;0.25;;;0.17;;
14169;SDS011;63889;50.596;8.690;2023-10-31T03:18:50;0.10;;;0.10;;
14169;SDS011;63889;50.596;8.690;2023-10-31T03:21:16;0.32;;;0.30;;
14169;SDS011;63889;50.596;8.690;2023-10-31T03:23:45;0.50;;;0.30;;
14169;SDS011;63889;50.596;8.690;2023-10-31T03:26:13;1.95;;;0.10;;
14169;SDS011;63889;50.596;8.690;2023-10-31T03:28:39;0.25;;;0.13;;
14169;SDS011;63889;50.596;8.690;2023-10-31T03:31:05;1.08;;;0.15;;
14169;SDS011;63889;50.596;8.690;2023-10-31T03:33:30;0.10;;;0.10;;
14169;SDS011;63889;50.596;8.690;2023-10-31T03:35:56;0.43;;;0.10;;
14169;SDS011;63889;50.596;8.690;2023-10-31T03:38:21;0.45;;;0.15;;
14169;SDS011;63889;50.596;8.690;2023-10-31T03:40:47;0.82;;;0.10;;
14169;SDS011;63889;50.596;8.690;2023-10-31T03:43:13;2.20;;;0.10;;
14169;SDS011;63889;50.596;8.690;2023-10-31T03:45:39;2.60;;;0.17;;
14169;SDS011;63889;50.596;8.690;2023-10-31T03:48:06;0.10;;;0.10;;
14169;SDS011;63889;50.596;8.690;2023-10-31T03:50:37;1.67;;;0.22;;
14169;SDS011;63889;50.596;8.690;2023-10-31T03:53:03;0.73;;;0.45;;
14169;SDS011;63889;50.596;8.690;2023-10-31T03:55:28;2.60;;;0.10;;
14169;SDS011;63889;50.596;8.690;2023-10-31T03:57:55;0.10;;;0.10;;
14169;SDS011;63889;50.596;8.690;2023-10-31T04:00:20;0.38;;;0.10;;
14169;SDS011;63889;50.596;8.690;2023-10-31T04:02:46;1.27;;;0.10;;
14169;SDS011;63889;50.596;8.690;2023-10-31T04:05:12;0.32;;;0.10;;
14169;SDS011;63889;50.596;8.690;2023-10-31T04:07:37;0.20;;;0.10;;
14169;SDS011;63889;50.596;8.690;2023-10-31T04:10:03;0.22;;;0.10;;
14169;SDS011;63889;50.596;8.690;2023-10-31T04:12:29;0.25;;;0.15;;
14169;SDS011;63889;50.596;8.690;2023-10-31T04:14:54;1.60;;;0.20;;
14169;SDS011;63889;50.596;8.690;2023-10-31T04:17:20;0.10;;;0.10;;
14169;SDS011;63889;50.596;8.690;2023-10-31T04:19:45;3.38;;;0.17;;
14169;SDS011;63889;50.596;8.690;2023-10-31T04:22:11;0.35;;;0.20;;
14169;SDS011;63889;50.596;8.690;2023-10-31T04:24:36;0.10;;;0.10;;
14169;SDS011;63889;50.596;8.690;2023-10-31T04:27:02;0.20;;;0.00;;
14169;SDS011;63889;50.596;8.690;2023-10-31T04:29:28;1.90;;;0.20;;
14169;SDS011;63889;50.596;8.690;2023-10-31T04:31:53;0.80;;;0.30;;
14169;SDS011;63889;50.596;8.690;2023-10-31T04:34:19;1.00;;;0.25;;
14169;SDS011;63889;50.596;8.690;2023-10-31T04:36:44;0.17;;;0.15;;
14169;SDS011;63889;50.596;8.690;2023-10-31T04:39:10;0.10;;;0.10;;
14169;SDS011;63889;50.596;8.690;2023-10-31T04:41:35;3.47;;;0.20;;
14169;SDS011;63889;50.596;8.690;2023-10-31T04:44:01;4.07;;;0.30;;
14169;SDS011;63889;50.596;8.690;2023-10-31T04:46:27;0.38;;;0.22;;
14169;SDS011;63889;50.596;8.690;2023-10-31T04:48:53;0.10;;;0.10;;
14169;SDS011;63889;50.596;8.690;2023-10-31T04:51:19;1.90;;;0.40;;
14169;SDS011;63889;50.596;8.690;2023-10-31T04:53:45;0.65;;;0.40;;
14169;SDS011;63889;50.596;8.690;2023-10-31T04:56:13;0.45;;;0.30;;
14169;SDS011;63889;50.596;8.690;2023-10-31T04:58:41;0.20;;;0.20;;
14169;SDS011;63889;50.596;8.690;2023-10-31T05:01:08;1.00;;;0.20;;
14169;SDS011;63889;50.596;8.690;2023-10-31T05:03:34;0.30;;;0.20;;
14169;SDS011;63889;50.596;8.690;2023-10-31T05:06:00;0.20;;;0.10;;
14169;SDS011;63889;50.596;8.690;2023-10-31T05:08:25;1.08;;;0.50;;
14169;SDS011;63889;50.596;8.690;2023-10-31T05:10:51;0.20;;;0.10;;
14169;SDS011;63889;50.596;8.690;2023-10-31T05:13:16;1.70;;;0.22;;
14169;SDS011;63889;50.596;8.690;2023-10-31T05:15:42;0.82;;;0.20;;
14169;SDS011;63889;50.596;8.690;2023-10-31T05:18:07;0.88;;;0.50;;
14169;SDS011;63889;50.596;8.690;2023-10-31T05:20:33;1.85;;;0.20;;
14169;SDS011;63889;50.596;8.690;2023-10-31T05:22:58;1.13;;;0.47;;
14169;SDS011;63889;50.596;8.690;2023-10-31T05:25:24;1.40;;;0.30;;
14169;SDS011;63889;50.596;8.690;2023-10-31T05:27:50;0.35;;;0.30;;
14169;SDS011;63889;50.596;8.690;2023-10-31T05:30:15;1.90;;;0.25;;
14169;SDS011;63889;50.596;8.690;2023-10-31T05:32:41;1.13;;;0.30;;
14169;SDS011;63889;50.596;8.690;2023-10-31T05:35:06;0.28;;;0.28;;
14169;SDS011;63889;50.596;8.690;2023-10-31T05:37:32;0.25;;;0.25;;
14169;SDS011;63889;50.596;8.690;2023-10-31T05:39:58;0.20;;;0.20;;
14169;SDS011;63889;50.596;8.690;2023-10-31T05:42:23;0.70;;;0.38;;
14169;SDS011;63889;50.596;8.690;2023-10-31T05:44:49;0.30;;;0.30;;
14169;SDS011;63889;50.596;8.690;2023-10-31T05:47:15;1.15;;;0.30;;
14169;SDS011;63889;50.596;8.690;2023-10-31T05:49:42;1.05;;;0.20;;
14169;SDS011;63889;50.596;8.690;2023-10-31T05:52:08;0.20;;;0.20;;
14169;SDS011;63889;50.596;8.690;2023-10-31T05:54:33;0.63;;;0.20;;
14169;SDS011;63889;50.596;8.690;2023-10-31T05:56:59;0.80;;;0.43;;
14169;SDS011;63889;50.596;8.690;2023-10-31T05:59:24;1.02;;;0.20;;
14169;SDS011;63889;50.596;8.690;2023-10-31T06:01:50;0.50;;;0.22;;
14169;SDS011;63889;50.596;8.690;2023-10-31T06:04:16;0.77;;;0.40;;
14169;SDS011;63889;50.596;8.690;2023-10-31T06:06:41;0.28;;;0.28;;
14169;SDS011;63889;50.596;8.690;2023-10-31T06:09:07;0.63;;;0.32;;
14169;SDS011;63889;50.596;8.690;2023-10-31T06:11:35;0.57;;;0.20;;
14169;SDS011;63889;50.596;8.690;2023-10-31T06:14:00;0.20;;;0.20;;
14169;SDS011;63889;50.596;8.690;2023-10-31T06:16:26;4.40;;;0.55;;
14169;SDS011;63889;50.596;8.690;2023-10-31T06:18:51;0.30;;;0.20;;
14169;SDS011;63889;50.596;8.690;2023-10-31T06:21:17;0.52;;;0.32;;
14169;SDS011;63889;50.596;8.690;2023-10-31T06:23:43;4.88;;;0.40;;
14169;SDS011;63889;50.596;8.690;2023-10-31T06:26:11;0.52;;;0.15;;
14169;SDS011;63889;50.596;8.690;2023-10-31T06:28:36;0.50;;;0.30;;
14169;SDS011;63889;50.596;8.690;2023-10-31T06:31:02;1.15;;;0.28;;
14169;SDS011;63889;50.596;8.690;2023-10-31T06:33:28;1.55;;;0.35;;
14169;SDS011;63889;50.596;8.690;2023-10-31T06:35:54;0.40;;;0.40;;
14169;SDS011;63889;50.596;8.690;2023-10-31T06:38:19;2.25;;;0.35;;
14169;SDS011;63889;50.596;8.690;2023-10-31T06:40:45;3.03;;;0.70;;
14169;SDS011;63889;50.596;8.690;2023-10-31T06:43:11;0.45;;;0.30;;
14169;SDS011;63889;50.596;8.690;2023-10-31T06:45:36;0.52;;;0.40;;
14169;SDS011;63889;50.596;8.690;2023-10-31T06:48:02;0.98;;;0.40;;
14169;SDS011;63889;50.596;8.690;2023-10-31T06:50:28;1.38;;;0.50;;
14169;SDS011;63889;50.596;8.690;2023-10-31T06:52:54;0.90;;;0.60;;
14169;SDS011;63889;50.596;8.690;2023-10-31T06:55:19;2.25;;;0.52;;
14169;SDS011;63889;50.596;8.690;2023-10-31T06:57:45;2.30;;;0.70;;
14169;SDS011;63889;50.596;8.690;2023-10-31T07:00:11;1.23;;;0.50;;
14169;SDS011;63889;50.596;8.690;2023-10-31T07:02:37;1.63;;;0.90;;
14169;SDS011;63889;50.596;8.690;2023-10-31T07:05:03;9.38;;;0.80;;
14169;SDS011;63889;50.596;8.690;2023-10-31T07:07:29;1.58;;;0.60;;
14169;SDS011;63889;50.596;8.690;2023-10-31T07:09:54;4.20;;;0.80;;
14169;SDS011;63889;50.596;8.690;2023-10-31T07:12:20;1.70;;;0.60;;
14169;SDS011;63889;50.596;8.690;2023-10-31T07:14:46;1.77;;;0.93;;
14169;SDS011;63889;50.596;8.690;2023-10-31T07:17:12;2.50;;;0.90;;
14169;SDS011;63889;50.596;8.690;2023-10-31T07:19:38;0.95;;;0.63;;
14169;SDS011;63889;50.596;8.690;2023-10-31T07:22:03;1.08;;;0.60;;
14169;SDS011;63889;50.596;8.690;2023-10-31T07:24:29;5.55;;;1.17;;
14169;SDS011;63889;50.596;8.690;2023-10-31T07:26:54;2.70;;;0.88;;
14169;SDS011;63889;50.596;8.690;2023-10-31T07:29:20;1.10;;;0.65;;
14169;SDS011;63889;50.596;8.690;2023-10-31T07:31:45;3.08;;;0.93;;
14169;SDS011;63889;50.596;8.690;2023-10-31T07:34:11;0.73;;;0.50;;
14169;SDS011;63889;50.596;8.690;2023-10-31T07:36:37;1.45;;;0.80;;
14169;SDS011;63889;50.596;8.690;2023-10-31T07:39:04;2.75;;;0.80;;
14169;SDS011;63889;50.596;8.690;2023-10-31T07:41:30;0.77;;;0.77;;
14169;SDS011;63889;50.596;8.690;2023-10-31T07:43:56;0.80;;;0.60;;
14169;SDS011;63889;50.596;8.690;2023-10-31T07:46:21;2.80;;;0.80;;
14169;SDS011;63889;50.596;8.690;2023-10-31T07:48:48;1.30;;;1.02;;
14169;SDS011;63889;50.596;8.690;2023-10-31T07:51:14;1.80;;;0.80;;
14169;SDS011;63889;50.596;8.690;2023-10-31T07:53:40;1.08;;;0.63;;
14169;SDS011;63889;50.596;8.690;2023-10-31T07:56:14;2.58;;;0.60;;
14169;SDS011;63889;50.596;8.690;2023-10-31T07:58:41;1.00;;;0.80;;
14169;SDS011;63889;50.596;8.690;2023-10-31T08:01:06;1.38;;;1.00;;
14169;SDS011;63889;50.596;8.690;2023-10-31T08:03:35;4.50;;;1.02;;
14169;SDS011;63889;50.596;8.690;2023-10-31T08:06:02;1.33;;;0.88;;
14169;SDS011;63889;50.596;8.690;2023-10-31T08:08:28;1.42;;;0.73;;
14169;SDS011;63889;50.596;8.690;2023-10-31T08:10:53;3.63;;;0.80;;
14169;SDS011;63889;50.596;8.690;2023-10-31T08:13:19;2.15;;;0.80;;
14169;SDS011;63889;50.596;8.690;2023-10-31T08:15:44;0.90;;;0.57;;
14169;SDS011;63889;50.596;8.690;2023-10-31T08:18:10;3.05;;;0.68;;
14169;SDS011;63889;50.596;8.690;2023-10-31T08:20:35;0.95;;;0.63;;
14169;SDS011;63889;50.596;8.690;2023-10-31T08:23:01;0.82;;;0.65;;
14169;SDS011;63889;50.596;8.690;2023-10-31T08:25:27;1.77;;;0.77;;
14169;SDS011;63889;50.596;8.690;2023-10-31T08:27:52;2.33;;;1.30;;
14169;SDS011;63889;50.596;8.690;2023-10-31T08:30:18;1.45;;;0.60;;
14169;SDS011;63889;50.596;8.690;2023-10-31T08:32:45;1.10;;;0.68;;
14169;SDS011;63889;50.596;8.690;2023-10-31T08:35:10;1.05;;;0.77;;
14169;SDS011;63889;50.596;8.690;2023-10-31T08:37:36;0.98;;;0.90;;
14169;SDS011;63889;50.596;8.690;2023-10-31T08:40:01;3.47;;;1.33;;
14169;SDS011;63889;50.596;8.690;2023-10-31T08:42:32;1.10;;;0.82;;
14169;SDS011;63889;50.596;8.690;2023-10-31T08:44:57;2.20;;;1.17;;
14169;SDS011;63889;50.596;8.690;2023-10-31T08:47:23;0.93;;;0.82;;
14169;SDS011;63889;50.596;8.690;2023-10-31T08:49:48;1.55;;;0.80;;
14169;SDS011;63889;50.596;8.690;2023-10-31T08:52:14;0.52;;;0.50;;
14169;SDS011;63889;50.596;8.690;2023-10-31T08:54:39;4.25;;;0.55;;
14169;SDS011;63889;50.596;8.690;2023-10-31T08:57:05;1.23;;;0.55;;
14169;SDS011;63889;50.596;8.690;2023-10-31T08:59:30;1.30;;;0.63;;
14169;SDS011;63889;50.596;8.690;2023-10-31T09:01:56;2.05;;;1.00;;
14169;SDS011;63889;50.596;8.690;2023-10-31T09:04:21;0.70;;;0.60;;
14169;SDS011;63889;50.596;8.690;2023-10-31T09:06:47;1.73;;;0.82;;
14169;SDS011;63889;50.596;8.690;2023-10-31T09:09:12;3.55;;;0.80;;
14169;SDS011;63889;50.596;8.690;2023-10-31T09:11:38;1.45;;;0.70;;
14169;SDS011;63889;50.596;8.690;2023-10-31T09:14:04;2.20;;;0.85;;
14169;SDS011;63889;50.596;8.690;2023-10-31T09:16:29;1.70;;;1.02;;
14169;SDS011;63889;50.596;8.690;2023-10-31T09:18:55;1.52;;;1.42;;
14169;SDS011;63889;50.596;8.690;2023-10-31T09:21:20;1.33;;;1.23;;
14169;SDS011;63889;50.596;8.690;2023-10-31T09:23:46;1.15;;;0.80;;
14169;SDS011;63889;50.596;8.690;2023-10-31T09:26:12;2.22;;;1.35;;
14169;SDS011;63889;50.596;8.690;2023-10-31T09:28:38;4.38;;;0.80;;
14169;SDS011;63889;50.596;8.690;2023-10-31T09:31:05;1.60;;;0.65;;
14169;SDS011;63889;50.596;8.690;2023-10-31T09:33:30;1.30;;;0.65;;
14169;SDS011;63889;50.596;8.690;2023-10-31T09:35:56;2.92;;;0.73;;
14169;SDS011;63889;50.596;8.690;2023-10-31T09:38:22;1.05;;;0.70;;
14169;SDS011;63889;50.596;8.690;2023-10-31T09:40:48;2.50;;;0.80;;
14169;SDS011;63889;50.596;8.690;2023-10-31T09:43:14;0.80;;;0.77;;
14169;SDS011;63889;50.596;8.690;2023-10-31T09:45:40;1.83;;;0.75;;
14169;SDS011;63889;50.596;8.690;2023-10-31T09:48:06;2.20;;;0.55;;
14169;SDS011;63889;50.596;8.690;2023-10-31T09:50:32;0.80;;;0.55;;
14169;SDS011;63889;50.596;8.690;2023-10-31T09:52:59;1.70;;;0.70;;
14169;SDS011;63889;50.596;8.690;2023-10-31T09:55:26;2.20;;;0.70;;
14169;SDS011;63889;50.596;8.690;2023-10-31T09:57:52;0.68;;;0.65;;
14169;SDS011;63889;50.596;8.690;2023-10-31T10:00:18;1.15;;;0.60;;
14169;SDS011;63889;50.596;8.690;2023-10-31T10:02:44;1.45;;;0.70;;
14169;SDS011;63889;50.596;8.690;2023-10-31T10:05:09;2.58;;;0.70;;
14169;SDS011;63889;50.596;8.690;2023-10-31T10:07:36;0.82;;;0.75;;
14169;SDS011;63889;50.596;8.690;2023-10-31T10:10:09;1.40;;;0.65;;
14169;SDS011;63889;50.596;8.690;2023-10-31T10:12:35;1.00;;;0.47;;
14169;SDS011;63889;50.596;8.690;2023-10-31T10:15:01;1.73;;;0.40;;
14169;SDS011;63889;50.596;8.690;2023-10-31T10:17:27;1.50;;;0.80;;
14169;SDS011;63889;50.596;8.690;2023-10-31T10:20:14;4.35;;;0.77;;
14169;SDS011;63889;50.596;8.690;2023-10-31T10:22:40;1.25;;;0.80;;
14169;SDS011;63889;50.596;8.690;2023-10-31T10:25:07;3.25;;;0.82;;
14169;SDS011;63889;50.596;8.690;2023-10-31T10:27:39;3.40;;;0.80;;
14169;SDS011;63889;50.596;8.690;2023-10-31T10:30:07;2.97;;;0.60;;
14169;SDS011;63889;50.596;8.690;2023-10-31T10:32:33;3.03;;;1.48;;
14169;SDS011;63889;50.596;8.690;2023-10-31T10:34:59;2.78;;;1.20;;
14169;SDS011;63889;50.596;8.690;2023-10-31T10:37:26;5.15;;;0.60;;
14169;SDS011;63889;50.596;8.690;2023-10-31T10:39:52;1.27;;;0.93;;
14169;SDS011;63889;50.596;8.690;2023-10-31T10:42:37;2.40;;;0.80;;
14169;SDS011;63889;50.596;8.690;2023-10-31T10:45:13;2.22;;;0.50;;
14169;SDS011;63889;50.596;8.690;2023-10-31T10:47:40;1.70;;;0.40;;
14169;SDS011;63889;50.596;8.690;2023-10-31T10:50:10;0.68;;;0.52;;
14169;SDS011;63889;50.596;8.690;2023-10-31T10:52:42;1.20;;;0.52;;
14169;SDS011;63889;50.596;8.690;2023-10-31T10:55:13;0.63;;;0.57;;
14169;SDS011;63889;50.596;8.690;2023-10-31T11:00:34;1.42;;;1.08;;
14169;SDS011;63889;50.596;8.690;2023-10-31T11:03:00;2.30;;;0.77;;
14169;SDS011;63889;50.596;8.690;2023-10-31T11:05:26;1.52;;;0.52;;
14169;SDS011;63889;50.596;8.690;2023-10-31T11:07:52;1.80;;;1.13;;
14169;SDS011;63889;50.596;8.690;2023-10-31T11:10:20;3.63;;;0.75;;
14169;SDS011;63889;50.596;8.690;2023-10-31T11:12:46;3.85;;;0.90;;
14169;SDS011;63889;50.596;8.690;2023-10-31T11:15:13;4.00;;;0.50;;
14169;SDS011;63889;50.596;8.690;2023-10-31T11:17:41;4.55;;;0.73;;
14169;SDS011;63889;50.596;8.690;2023-10-31T11:20:10;1.80;;;0.55;;
14169;SDS011;63889;50.596;8.690;2023-10-31T11:22:40;1.30;;;0.50;;
14169;SDS011;63889;50.596;8.690;2023-10-31T11:25:12;1.03;;;0.57;;
14169;SDS011;63889;50.596;8.690;2023-10-31T11:27:39;1.08;;;0.50;;
14169;SDS011;63889;50.596;8.690;2023-10-31T11:30:07;0.82;;;0.65;;
14169;SDS011;63889;50.596;8.690;2023-10-31T11:32:47;0.88;;;0.55;;
14169;SDS011;63889;50.596;8.690;2023-10-31T11:35:15;2.13;;;0.70;;
14169;SDS011;63889;50.596;8.690;2023-10-31T11:37:41;2.72;;;1.00;;
14169;SDS011;63889;50.596;8.690;2023-10-31T11:42:43;5.85;;;1.23;;
14169;SDS011;63889;50.596;8.690;2023-10-31T11:45:12;2.40;;;0.60;;
14169;SDS011;63889;50.596;8.690;2023-10-31T11:50:14;2.92;;;0.50;;
14169;SDS011;63889;50.596;8.690;2023-10-31T11:52:40;2.25;;;1.00;;
14169;SDS011;63889;50.596;8.690;2023-10-31T11:55:12;2.33;;;0.60;;
14169;SDS011;63889;50.596;8.690;2023-10-31T11:57:38;1.75;;;0.82;;
14169;SDS011;63889;50.596;8.690;2023-10-31T12:00:04;2.28;;;0.95;;
14169;SDS011;63889;50.596;8.690;2023-10-31T12:02:32;0.98;;;0.50;;
14169;SDS011;63889;50.596;8.690;2023-10-31T12:05:10;0.73;;;0.68;;
14169;SDS011;63889;50.596;8.690;2023-10-31T12:07:43;3.13;;;0.50;;
14169;SDS011;63889;50.596;8.690;2023-10-31T12:10:10;2.63;;;0.55;;
14169;SDS011;63889;50.596;8.690;2023-10-31T12:12:36;0.57;;;0.25;;
14169;SDS011;63889;50.596;8.690;2023-10-31T12:15:06;1.65;;;0.55;;
14169;SDS011;63889;50.596;8.690;2023-10-31T12:17:32;0.73;;;0.40;;
14169;SDS011;63889;50.596;8.690;2023-10-31T12:20:02;2.30;;;0.30;;
14169;SDS011;63889;50.596;8.690;2023-10-31T12:22:33;2.67;;;0.50;;
14169;SDS011;63889;50.596;8.690;2023-10-31T12:25:09;2.33;;;1.35;;
14169;SDS011;63889;50.596;8.690;2023-10-31T12:27:45;1.35;;;0.80;;
14169;SDS011;63889;50.596;8.690;2023-10-31T12:30:13;3.90;;;0.75;;
14169;SDS011;63889;50.596;8.690;2023-10-31T12:32:40;1.70;;;0.60;;
14169;SDS011;63889;50.596;8.690;2023-10-31T12:35:13;0.40;;;0.40;;
14169;SDS011;63889;50.596;8.690;2023-10-31T12:37:45;0.60;;;0.40;;
14169;SDS011;63889;50.596;8.690;2023-10-31T12:40:21;2.35;;;0.52;;
14169;SDS011;63889;50.596;8.690;2023-10-31T12:42:48;3.45;;;0.52;;
14169;SDS011;63889;50.596;8.690;2023-10-31T12:45:15;2.42;;;0.63;;
14169;SDS011;63889;50.596;8.690;2023-10-31T12:47:42;7.63;;;1.63;;
14169;SDS011;63889;50.596;8.690;2023-10-31T12:50:12;2.30;;;0.70;;
14169;SDS011;63889;50.596;8.690;2023-10-31T12:52:46;3.53;;;1.55;;
14169;SDS011;63889;50.596;8.690;2023-10-31T12:55:13;1.92;;;1.25;;
14169;SDS011;63889;50.596;8.690;2023-10-31T12:57:43;3.38;;;1.40;;
14169;SDS011;63889;50.596;8.690;2023-10-31T13:00:09;1.63;;;1.00;;
14169;SDS011;63889;50.596;8.690;2023-10-31T13:02:37;2.80;;;0.60;;
14169;SDS011;63889;50.596;8.690;2023-10-31T13:05:11;2.40;;;0.55;;
14169;SDS011;63889;50.596;8.690;2023-10-31T13:07:38;1.50;;;0.55;;
14169;SDS011;63889;50.596;8.690;2023-10-31T13:10:04;1.83;;;0.50;;
14169;SDS011;63889;50.596;8.690;2023-10-31T13:12:31;1.45;;;0.65;;
14169;SDS011;63889;50.596;8.690;2023-10-31T13:14:56;3.78;;;0.85;;
14169;SDS011;63889;50.596;8.690;2023-10-31T13:17:22;1.55;;;0.63;;
14169;SDS011;63889;50.596;8.690;2023-10-31T13:19:47;0.60;;;0.40;;
14169;SDS011;63889;50.596;8.690;2023-10-31T13:22:13;1.70;;;0.60;;
14169;SDS011;63889;50.596;8.690;2023-10-31T13:24:39;0.47;;;0.40;;
14169;SDS011;63889;50.596;8.690;2023-10-31T13:27:05;2.22;;;0.68;;
14169;SDS011;63889;50.596;8.690;2023-10-31T13:29:31;0.80;;;0.30;;
14169;SDS011;63889;50.596;8.690;2023-10-31T13:31:58;0.80;;;0.50;;
14169;SDS011;63889;50.596;8.690;2023-10-31T13:34:23;6.68;;;0.77;;
14169;SDS011;63889;50.596;8.690;2023-10-31T13:36:49;2.53;;;0.50;;
14169;SDS011;63889;50.596;8.690;2023-10-31T13:39:15;0.95;;;0.52;;
14169;SDS011;63889;50.596;8.690;2023-10-31T13:41:40;1.42;;;0.50;;
14169;SDS011;63889;50.596;8.690;2023-10-31T13:44:06;0.55;;;0.13;;
14169;SDS011;63889;50.596;8.690;2023-10-31T13:46:31;1.58;;;0.30;;
14169;SDS011;63889;50.596;8.690;2023-10-31T13:48:57;1.02;;;0.40;;
14169;SDS011;63889;50.596;8.690;2023-10-31T13:51:23;1.05;;;0.45;;
14169;SDS011;63889;50.596;8.690;2023-10-31T13:53:48;1.35;;;0.80;;
14169;SDS011;63889;50.596;8.690;2023-10-31T13:56:15;2.55;;;1.38;;
14169;SDS011;63889;50.596;8.690;2023-10-31T13:58:40;7.70;;;2.17;;
14169;SDS011;63889;50.596;8.690;2023-10-31T14:01:06;7.03;;;4.32;;
14169;SDS011;63889;50.596;8.690;2023-10-31T14:03:31;3.53;;;1.85;;
14169;SDS011;63889;50.596;8.690;2023-10-31T14:05:57;3.47;;;1.70;;
14169;SDS011;63889;50.596;8.690;2023-10-31T14:10:59;6.00;;;2.00;;
14169;SDS011;63889;50.596;8.690;2023-10-31T14:13:27;2.47;;;0.68;;
14169;SDS011;63889;50.596;8.690;2023-10-31T14:15:55;0.88;;;0.47;;
14169;SDS011;63889;50.596;8.690;2023-10-31T14:18:20;1.58;;;0.65;;
14169;SDS011;63889;50.596;8.690;2023-10-31T14:20:46;1.88;;;0.70;;
14169;SDS011;63889;50.596;8.690;2023-10-31T14:23:11;3.55;;;1.67;;
14169;SDS011;63889;50.596;8.690;2023-10-31T14:25:37;3.35;;;0.70;;
14169;SDS011;63889;50.596;8.690;2023-10-31T14:28:03;2.25;;;0.70;;
14169;SDS011;63889;50.596;8.690;2023-10-31T14:30:29;1.67;;;0.65;;
14169;SDS011;63889;50.596;8.690;2023-10-31T14:32:55;2.58;;;0.75;;
14169;SDS011;63889;50.596;8.690;2023-10-31T14:35:23;3.10;;;0.75;;
14169;SDS011;63889;50.596;8.690;2023-10-31T14:37:49;2.33;;;0.63;;
14169;SDS011;63889;50.596;8.690;2023-10-31T14:40:14;2.17;;;0.75;;
14169;SDS011;63889;50.596;8.690;2023-10-31T14:42:40;1.15;;;0.70;;
14169;SDS011;63889;50.596;8.690;2023-10-31T14:45:06;3.08;;;1.60;;
14169;SDS011;63889;50.596;8.690;2023-10-31T14:47:32;5.68;;;2.03;;
14169;SDS011;63889;50.596;8.690;2023-10-31T14:49:58;4.28;;;2.20;;
14169;SDS011;63889;50.596;8.690;2023-10-31T14:52:23;2.00;;;1.20;;
14169;SDS011;63889;50.596;8.690;2023-10-31T14:54:49;3.15;;;0.60;;
14169;SDS011;63889;50.596;8.690;2023-10-31T14:57:15;2.38;;;0.70;;